createdAt,value
2019-02-20T00:01:30.477Z,100059.06
2019-02-20T00:03:58.298Z,100062.20
2019-02-20T00:06:26.126Z,100057.30
2019-02-20T00:08:53.927Z,100059.95
2019-02-20T00:11:21.724Z,100056.44
2019-02-20T00:13:49.543Z,100063.47
2019-02-20T00:16:17.347Z,100063.75
2019-02-20T00:18:45.183Z,100068.08
2019-02-20T00:21:43.705Z,100067.57
2019-02-20T00:24:11.514Z,100077.98
2019-02-20T00:26:39.301Z,100077.98
2019-02-20T00:30:12.873Z,100078.14
2019-02-20T00:32:40.671Z,100074.87
2019-02-20T00:35:08.514Z,100079.70
2019-02-20T00:37:36.309Z,100084.10
2019-02-20T00:40:28.679Z,100080.02
2019-02-20T00:42:56.450Z,100082.73
2019-02-20T00:45:42.728Z,100083.82
2019-02-20T00:48:28.739Z,100085.97
2019-02-20T00:51:08.789Z,100081.33
2019-02-20T00:53:42.367Z,100079.95
2019-02-20T00:56:10.188Z,100081.09
2019-02-20T00:58:38.060Z,100077.98
2019-02-20T01:01:05.820Z,100081.02
2019-02-20T01:03:33.626Z,100081.67
2019-02-20T01:06:04.912Z,100094.85
2019-02-20T01:08:33.014Z,100093.22
2019-02-20T01:11:00.806Z,100097.27
2019-02-20T01:13:28.631Z,100100.92
2019-02-20T01:15:57.511Z,100098.94
2019-02-20T01:18:25.281Z,100098.52
2019-02-20T01:20:53.106Z,100096.43
2019-02-20T01:23:20.885Z,100088.47
2019-02-20T01:25:48.719Z,100087.69
2019-02-20T01:28:16.585Z,100087.48
2019-02-20T01:30:44.747Z,100079.53
2019-02-20T01:33:12.581Z,100083.64
2019-02-20T01:35:40.377Z,100084.39
2019-02-20T01:38:08.217Z,100085.41
2019-02-20T01:40:51.118Z,100088.30
2019-02-20T01:43:18.899Z,100092.48
2019-02-20T01:45:46.730Z,100088.06
2019-02-20T01:48:15.686Z,100089.32
2019-02-20T01:50:43.548Z,100087.72
2019-02-20T01:53:11.379Z,100079.92
2019-02-20T01:55:39.151Z,100079.15
2019-02-20T01:58:06.979Z,100075.42
2019-02-20T02:00:34.802Z,100078.18
2019-02-20T02:03:02.581Z,100073.16
2019-02-20T02:05:30.413Z,100072.81
2019-02-20T02:07:58.261Z,100068.97
2019-02-20T02:10:41.273Z,100070.03
2019-02-20T02:13:09.076Z,100070.45
2019-02-20T02:15:36.938Z,100072.33
2019-02-20T02:18:04.703Z,100070.93
2019-02-20T02:20:32.492Z,100071.91
2019-02-20T02:23:00.261Z,100071.98
2019-02-20T02:25:28.061Z,100072.41
2019-02-20T02:27:55.790Z,100072.24
2019-02-20T02:30:23.641Z,100074.34
2019-02-20T02:32:51.370Z,100069.62
2019-02-20T02:35:19.157Z,100064.59
2019-02-20T02:37:46.966Z,100049.66
2019-02-20T02:40:14.772Z,100070.58
2019-02-20T02:42:42.553Z,100069.63
2019-02-20T02:45:10.355Z,100062.65
2019-02-20T02:47:38.189Z,100062.44
2019-02-20T02:50:06.602Z,100060.72
2019-02-20T02:52:34.362Z,100065.78
2019-02-20T02:55:02.126Z,100068.01
2019-02-20T02:57:29.964Z,100071.05
2019-02-20T03:00:03.390Z,100076.83
2019-02-20T03:02:31.190Z,100078.13
2019-02-20T03:04:58.993Z,100078.45
2019-02-20T03:07:26.829Z,100074.87
2019-02-20T03:09:54.635Z,100075.38
2019-02-20T03:12:22.456Z,100078.48
2019-02-20T03:14:50.211Z,100079.48
2019-02-20T03:17:18.364Z,100081.17
2019-02-20T03:19:51.188Z,100076.48
2019-02-20T03:22:20.032Z,100076.41
2019-02-20T03:24:47.833Z,100080.22
2019-02-20T03:27:15.658Z,100074.41
2019-02-20T03:29:43.459Z,100076.55
2019-02-20T03:32:30.684Z,100074.57
2019-02-20T03:34:58.437Z,100077.81
2019-02-20T03:37:26.263Z,100078.15
2019-02-20T03:39:54.042Z,100089.73
2019-02-20T03:42:21.865Z,100085.59
2019-02-20T03:44:49.683Z,100089.45
2019-02-20T03:47:17.488Z,100092.97
2019-02-20T03:49:45.343Z,100092.92
2019-02-20T03:52:13.146Z,100093.50
2019-02-20T03:54:40.992Z,100090.78
2019-02-20T03:57:08.784Z,100094.29
2019-02-20T03:59:36.671Z,100089.47
2019-02-20T04:02:04.813Z,100082.39
2019-02-20T04:04:32.642Z,100091.97
2019-02-20T04:07:00.486Z,100073.53
2019-02-20T04:09:33.552Z,100087.12
2019-02-20T04:12:01.368Z,100095.83
2019-02-20T04:14:29.203Z,100095.75
2019-02-20T04:16:56.979Z,100099.69
2019-02-20T04:19:24.836Z,100107.41
2019-02-20T04:21:52.591Z,100098.60
2019-02-20T04:24:20.367Z,100102.60
2019-02-20T04:26:48.161Z,100102.77
2019-02-20T04:29:16.230Z,100107.86
2019-02-20T04:31:44.018Z,100111.51
2019-02-20T04:34:11.824Z,100107.94
2019-02-20T04:36:39.593Z,100111.77
2019-02-20T04:39:12.537Z,100109.70
2019-02-20T04:41:40.395Z,100107.64
2019-02-20T04:44:08.276Z,100105.11
2019-02-20T04:46:36.113Z,100105.13
2019-02-20T04:49:03.948Z,100106.09
2019-02-20T04:51:31.741Z,100117.53
2019-02-20T04:53:59.557Z,100114.06
2019-02-20T04:56:27.303Z,100117.77
2019-02-20T04:58:58.762Z,100119.56
2019-02-20T05:01:26.578Z,100124.64
2019-02-20T05:03:54.386Z,100126.47
2019-02-20T05:06:22.124Z,100127.48
2019-02-20T05:08:49.929Z,100125.67
2019-02-20T05:11:32.845Z,100130.29
2019-02-20T05:14:20.075Z,100129.99
2019-02-20T05:16:47.822Z,100128.70
2019-02-20T05:19:15.805Z,100126.80
2019-02-20T05:21:43.752Z,100131.23
2019-02-20T05:24:11.547Z,100129.23
2019-02-20T05:26:39.333Z,100134.21
2019-02-20T05:29:07.110Z,100128.09
2019-02-20T05:31:35.537Z,100131.41
2019-02-20T05:34:03.324Z,100123.64
2019-02-20T05:36:32.918Z,100122.88
2019-02-20T05:39:00.943Z,100130.21
2019-02-20T05:41:28.719Z,100135.63
2019-02-20T05:43:56.547Z,100132.06
2019-02-20T05:46:24.290Z,100137.56
2019-02-20T05:48:52.125Z,100138.16
2019-02-20T05:51:20.032Z,100143.13
2019-02-20T05:53:47.850Z,100149.70
2019-02-20T05:56:15.640Z,100156.89
2019-02-20T05:58:43.448Z,100156.41
2019-02-20T06:01:11.301Z,100150.30
2019-02-20T06:03:39.084Z,100145.78
2019-02-20T06:06:06.880Z,100142.91
2019-02-20T06:08:34.758Z,100150.97
2019-02-20T06:11:02.577Z,100151.09
2019-02-20T06:13:30.394Z,100152.90
2019-02-20T06:15:58.206Z,100147.69
2019-02-20T06:18:26.016Z,100149.38
2019-02-20T06:20:53.841Z,100151.61
2019-02-20T06:23:23.703Z,100157.34
2019-02-20T06:25:51.541Z,100159.32
2019-02-20T06:28:19.358Z,100162.02
2019-02-20T06:30:52.688Z,100157.81
2019-02-20T06:33:20.506Z,100159.55
2019-02-20T06:35:48.379Z,100162.95
2019-02-20T06:38:16.213Z,100166.34
2019-02-20T06:41:14.465Z,100167.52
2019-02-20T06:43:42.226Z,100172.41
2019-02-20T06:46:10.020Z,100175.89
2019-02-20T06:48:37.788Z,100186.61
2019-02-20T06:51:44.900Z,100196.36
2019-02-20T06:54:12.713Z,100203.27
2019-02-20T06:56:40.487Z,100208.37
2019-02-20T06:59:08.296Z,100208.70
2019-02-20T07:01:36.092Z,100211.58
2019-02-20T07:04:03.866Z,100219.27
2019-02-20T07:06:58.430Z,100213.60
2019-02-20T07:10:33.364Z,100224.89
2019-02-20T07:13:31.742Z,100223.17
2019-02-20T07:16:58.131Z,100226.51
2019-02-20T07:20:18.688Z,100225.65
2019-02-20T07:23:35.510Z,100233.98
2019-02-20T07:27:14.397Z,100226.91
2019-02-20T07:30:09.841Z,100228.09
2019-02-20T07:32:37.691Z,100227.80
2019-02-20T07:35:08.446Z,100227.56
2019-02-20T07:37:36.223Z,100226.80
2019-02-20T07:40:05.703Z,100224.92
2019-02-20T07:42:33.482Z,100230.11
2019-02-20T07:45:01.304Z,100235.38
2019-02-20T07:47:29.087Z,100238.62
2019-02-20T07:49:56.913Z,100248.89
2019-02-20T07:52:24.719Z,100246.95
2019-02-20T07:54:52.537Z,100249.00
2019-02-20T07:57:20.598Z,100250.48
2019-02-20T07:59:48.378Z,100259.75
2019-02-20T08:02:16.168Z,100258.58
2019-02-20T08:04:45.805Z,100270.89
2019-02-20T08:07:13.694Z,100276.27
2019-02-20T08:09:41.442Z,100280.40
2019-02-20T08:12:09.241Z,100277.06
2019-02-20T08:14:37.054Z,100274.72
2019-02-20T08:17:04.926Z,100272.91
2019-02-20T08:19:32.746Z,100267.22
2019-02-20T08:22:00.561Z,100271.70
2019-02-20T08:24:28.362Z,100276.41
2019-02-20T08:26:56.118Z,100273.08
2019-02-20T08:29:24.027Z,100273.09
2019-02-20T08:31:53.871Z,100269.53
2019-02-20T08:34:21.580Z,100270.77
2019-02-20T08:36:49.399Z,100270.78
2019-02-20T08:39:22.285Z,100277.94
2019-02-20T08:41:50.078Z,100273.73
2019-02-20T08:44:17.874Z,100275.95
2019-02-20T08:46:45.679Z,100278.53
2019-02-20T08:49:13.579Z,100280.20
2019-02-20T08:51:43.397Z,100281.92
2019-02-20T08:54:11.213Z,100286.27
2019-02-20T08:56:39.178Z,100294.19
2019-02-20T08:59:07.064Z,100295.63
2019-02-20T09:01:34.899Z,100299.54
2019-02-20T09:04:02.715Z,100298.89
2019-02-20T09:06:30.513Z,100296.79
2019-02-20T09:08:58.328Z,100292.83
2019-02-20T09:11:26.137Z,100291.43
2019-02-20T09:13:54.022Z,100292.08
2019-02-20T09:16:21.865Z,100291.95
2019-02-20T09:18:49.621Z,100287.61
2019-02-20T09:21:17.437Z,100286.87
2019-02-20T09:23:46.061Z,100293.48
2019-02-20T09:26:13.832Z,100291.41
2019-02-20T09:28:41.653Z,100287.34
2019-02-20T09:31:09.513Z,100290.70
2019-02-20T09:33:37.323Z,100288.66
2019-02-20T09:36:05.116Z,100290.95
2019-02-20T09:38:32.910Z,100293.35
2019-02-20T09:41:00.730Z,100290.70
2019-02-20T09:43:28.583Z,100298.70
2019-02-20T09:45:56.395Z,100296.94
2019-02-20T09:48:26.297Z,100295.70
2019-02-20T09:50:54.173Z,100291.64
2019-02-20T09:53:21.954Z,100292.54
2019-02-20T09:55:51.880Z,100305.46
2019-02-20T09:58:19.421Z,100302.41
2019-02-20T10:00:47.220Z,100308.41
2019-02-20T10:03:15.034Z,100302.33
2019-02-20T10:05:42.821Z,100301.56
2019-02-20T10:08:10.583Z,100305.50
2019-02-20T10:10:38.371Z,100312.31
2019-02-20T10:13:06.146Z,100307.23
2019-02-20T10:15:33.924Z,100305.91
2019-02-20T10:18:01.750Z,100311.98
2019-02-20T10:20:34.710Z,100316.27
2019-02-20T10:23:02.537Z,100318.89
2019-02-20T10:25:30.369Z,100318.09
2019-02-20T10:27:58.185Z,100315.34
2019-02-20T10:30:26.346Z,100308.03
2019-02-20T10:32:54.129Z,100306.41
2019-02-20T10:35:21.879Z,100298.30
2019-02-20T10:37:49.686Z,100298.20
2019-02-20T10:40:22.715Z,100293.83
2019-02-20T10:42:50.524Z,100287.30
2019-02-20T10:45:18.400Z,100289.70
2019-02-20T10:47:46.187Z,100288.08
2019-02-20T10:50:23.619Z,100279.28
2019-02-20T10:52:51.430Z,100276.48
2019-02-20T10:55:19.320Z,100276.08
2019-02-20T10:57:47.112Z,100272.55
2019-02-20T11:00:24.060Z,100269.08
2019-02-20T11:02:49.678Z,100257.47
2019-02-20T11:05:18.121Z,100255.84
2019-02-20T11:07:45.936Z,100254.59
2019-02-20T11:10:13.746Z,100252.73
2019-02-20T11:12:41.550Z,100251.30
2019-02-20T11:15:09.353Z,100247.69
2019-02-20T11:17:37.549Z,100246.59
2019-02-20T11:20:06.268Z,100240.41
2019-02-20T11:22:34.096Z,100239.80
2019-02-20T11:25:01.915Z,100229.66
2019-02-20T11:27:29.675Z,100235.53
2019-02-20T11:30:12.280Z,100233.26
2019-02-20T11:32:40.078Z,100234.17
2019-02-20T11:35:08.097Z,100228.78
2019-02-20T11:37:35.874Z,100230.16
2019-02-20T11:40:04.677Z,100230.47
2019-02-20T11:42:32.433Z,100232.83
2019-02-20T11:45:00.277Z,100232.58
2019-02-20T11:47:28.037Z,100225.37
2019-02-20T11:49:55.861Z,100227.47
2019-02-20T11:52:23.707Z,100227.78
2019-02-20T11:54:51.538Z,100226.02
2019-02-20T11:57:19.308Z,100223.95
2019-02-20T11:59:47.121Z,100219.29
2019-02-20T12:02:15.003Z,100214.22
2019-02-20T12:04:42.915Z,100217.04
2019-02-20T12:07:10.746Z,100223.02
2019-02-20T12:09:45.354Z,100217.49
2019-02-20T12:12:13.233Z,100222.50
2019-02-20T12:14:41.025Z,100219.63
2019-02-20T12:17:08.939Z,100209.60
2019-02-20T12:19:36.758Z,100206.55
2019-02-20T12:22:04.548Z,100202.58
2019-02-20T12:24:32.974Z,100200.13
2019-02-20T12:27:00.822Z,100198.42
2019-02-20T12:29:30.066Z,100199.92
2019-02-20T12:31:58.206Z,100198.09
2019-02-20T12:34:25.979Z,100187.67
2019-02-20T12:36:53.752Z,100182.66
2019-02-20T12:39:21.716Z,100191.48
2019-02-20T12:41:49.500Z,100182.53
2019-02-20T12:44:17.317Z,100183.14
2019-02-20T12:46:45.115Z,100175.87
2019-02-20T12:49:13.084Z,100172.15
2019-02-20T12:51:40.899Z,100161.02
2019-02-20T12:54:08.696Z,100166.28
2019-02-20T12:56:43.711Z,100172.79
2019-02-20T12:59:07.940Z,100168.39
2019-02-20T13:01:36.052Z,100172.02
2019-02-20T13:04:03.933Z,100173.01
2019-02-20T13:06:31.682Z,100165.83
2019-02-20T13:08:59.549Z,100159.37
2019-02-20T13:11:27.441Z,100166.52
2019-02-20T13:13:55.353Z,100161.34
2019-02-20T13:16:23.098Z,100163.25
2019-02-20T13:18:50.934Z,100160.53
2019-02-20T13:21:18.716Z,100157.09
2019-02-20T13:23:46.594Z,100164.25
2019-02-20T13:26:14.473Z,100157.16
2019-02-20T13:28:42.306Z,100152.86
2019-02-20T13:31:10.143Z,100151.21
2019-02-20T13:33:37.959Z,100150.41
2019-02-20T13:36:05.760Z,100151.20
2019-02-20T13:38:33.567Z,100153.64
2019-02-20T13:41:01.445Z,100151.36
2019-02-20T13:43:29.510Z,100153.34
2019-02-20T13:45:57.357Z,100149.88
2019-02-20T13:48:26.758Z,100150.59
2019-02-20T13:50:54.580Z,100151.27
2019-02-20T13:53:22.363Z,100146.80
2019-02-20T13:55:50.179Z,100143.39
2019-02-20T13:58:17.972Z,100143.27
2019-02-20T14:00:46.273Z,100145.05
2019-02-20T14:03:14.095Z,100139.45
2019-02-20T14:05:41.966Z,100140.59
2019-02-20T14:08:09.761Z,100136.02
2019-02-20T14:10:44.071Z,100138.08
2019-02-20T14:13:11.903Z,100141.63
2019-02-20T14:15:39.739Z,100142.28
2019-02-20T14:18:07.583Z,100140.30
2019-02-20T14:20:35.449Z,100142.27
2019-02-20T14:23:03.218Z,100144.42
2019-02-20T14:25:31.061Z,100143.66
2019-02-20T14:27:58.870Z,100149.97
2019-02-20T14:30:26.791Z,100144.92
2019-02-20T14:32:54.602Z,100143.69
2019-02-20T14:35:22.602Z,100143.95
2019-02-20T14:37:50.449Z,100142.81
2019-02-20T14:40:18.417Z,100143.36
2019-02-20T14:42:46.205Z,100142.49
2019-02-20T14:45:15.011Z,100139.66
2019-02-20T14:47:42.789Z,100137.73
2019-02-20T14:50:10.765Z,100142.66
2019-02-20T14:52:38.885Z,100135.94
2019-02-20T14:55:07.462Z,100138.16
2019-02-20T14:57:35.376Z,100131.61
2019-02-20T15:00:03.745Z,100130.83
2019-02-20T15:02:31.500Z,100124.56
2019-02-20T15:04:59.328Z,100131.33
2019-02-20T15:07:27.152Z,100126.98
2019-02-20T15:09:55.484Z,100128.17
2019-02-20T15:12:23.317Z,100127.41
2019-02-20T15:14:51.133Z,100133.34
2019-02-20T15:17:18.916Z,100133.84
2019-02-20T15:19:46.791Z,100131.38
2019-02-20T15:22:14.610Z,100132.37
2019-02-20T15:24:42.431Z,100132.66
2019-02-20T15:27:10.729Z,100135.22
2019-02-20T15:29:38.550Z,100133.98
2019-02-20T15:32:06.300Z,100131.38
2019-02-20T15:34:34.102Z,100134.58
2019-02-20T15:37:03.208Z,100134.10
2019-02-20T15:39:34.894Z,100133.98
2019-02-20T15:42:08.236Z,100132.93
2019-02-20T15:44:36.041Z,100135.20
2019-02-20T15:47:03.888Z,100140.41
2019-02-20T15:49:31.722Z,100133.23
2019-02-20T15:52:01.351Z,100137.12
2019-02-20T15:54:29.358Z,100132.72
2019-02-20T15:56:57.481Z,100138.70
2019-02-20T15:59:25.747Z,100140.17
2019-02-20T16:01:53.596Z,100145.16
2019-02-20T16:04:21.820Z,100142.48
2019-02-20T16:06:49.925Z,100144.98
2019-02-20T16:09:21.361Z,100145.31
2019-02-20T16:11:54.856Z,100144.48
2019-02-20T16:14:31.712Z,100144.95
2019-02-20T16:17:00.644Z,100149.75
2019-02-20T16:19:31.648Z,100156.49
2019-02-20T16:22:00.231Z,100157.66
2019-02-20T16:24:29.244Z,100163.76
2019-02-20T16:26:57.569Z,100164.23
2019-02-20T16:29:25.876Z,100160.44
2019-02-20T16:31:53.715Z,100165.04
2019-02-20T16:34:21.479Z,100162.69
2019-02-20T16:36:49.371Z,100160.54
2019-02-20T16:39:17.288Z,100158.86
2019-02-20T16:41:45.123Z,100161.64
2019-02-20T16:44:12.911Z,100166.39
2019-02-20T16:46:41.061Z,100165.01
2019-02-20T16:49:08.918Z,100169.28
2019-02-20T16:51:36.708Z,100170.60
2019-02-20T16:54:05.029Z,100171.09
2019-02-20T16:56:32.972Z,100169.08
2019-02-20T16:59:00.850Z,100173.38
2019-02-20T17:01:29.809Z,100178.45
2019-02-20T17:03:58.100Z,100180.24
2019-02-20T17:06:25.905Z,100187.28
2019-02-20T17:08:53.714Z,100188.89
2019-02-20T17:11:21.492Z,100188.20
2019-02-20T17:13:49.284Z,100187.37
2019-02-20T17:16:17.477Z,100188.80
2019-02-20T17:18:45.351Z,100202.73
2019-02-20T17:21:13.467Z,100198.58
2019-02-20T17:23:41.307Z,100202.45
2019-02-20T17:26:09.178Z,100207.20
2019-02-20T17:28:37.155Z,100209.91
2019-02-20T17:31:05.263Z,100214.66
2019-02-20T17:33:33.079Z,100219.69
2019-02-20T17:36:00.924Z,100223.42
2019-02-20T17:38:28.860Z,100226.38
2019-02-20T17:40:56.723Z,100227.27
2019-02-20T17:43:24.564Z,100227.83
2019-02-20T17:45:52.349Z,100230.25
2019-02-20T17:48:20.182Z,100230.67
2019-02-20T17:50:48.056Z,100236.14
2019-02-20T17:53:15.872Z,100239.27
2019-02-20T17:55:43.975Z,100241.64
2019-02-20T17:58:15.265Z,100235.77
2019-02-20T18:00:41.610Z,100235.84
2019-02-20T18:03:09.697Z,100235.98
2019-02-20T18:05:37.531Z,100233.36
2019-02-20T18:08:05.301Z,100236.10
2019-02-20T18:10:33.389Z,100240.95
2019-02-20T18:13:01.236Z,100241.70
2019-02-20T18:15:29.090Z,100243.67
2019-02-20T18:17:56.877Z,100249.91
2019-02-20T18:20:25.225Z,100256.41
2019-02-20T18:22:53.193Z,100258.64
2019-02-20T18:25:20.989Z,100257.08
2019-02-20T18:27:48.795Z,100264.70
2019-02-20T18:30:16.607Z,100263.02
2019-02-20T18:32:44.470Z,100263.48
2019-02-20T18:35:12.306Z,100271.76
2019-02-20T18:37:40.095Z,100277.29
2019-02-20T18:40:09.009Z,100273.28
2019-02-20T18:42:36.956Z,100281.39
2019-02-20T18:45:06.815Z,100284.31
2019-02-20T18:47:34.659Z,100278.45
2019-02-20T18:50:09.641Z,100288.09
2019-02-20T18:52:37.433Z,100289.31
2019-02-20T18:55:08.827Z,100293.65
2019-02-20T18:57:36.659Z,100297.45
2019-02-20T19:00:08.949Z,100295.14
2019-02-20T19:02:36.829Z,100298.55
2019-02-20T19:05:05.341Z,100294.45
2019-02-20T19:07:33.121Z,100294.96
2019-02-20T19:10:00.929Z,100293.91
2019-02-20T19:13:07.568Z,100296.17
2019-02-20T19:16:06.956Z,100294.24
2019-02-20T19:19:23.683Z,100296.47
2019-02-20T19:22:46.648Z,100296.31
2019-02-20T19:26:26.064Z,100306.13
2019-02-20T19:30:04.942Z,100308.92
2019-02-20T19:33:06.663Z,100305.33
2019-02-20T19:36:37.692Z,100308.54
2019-02-20T19:39:39.969Z,100313.78
2019-02-20T19:43:07.919Z,100315.05
2019-02-20T19:46:33.177Z,100315.23
2019-02-20T19:49:44.402Z,100315.00
2019-02-20T19:52:59.311Z,100315.27
2019-02-20T19:56:10.759Z,100316.34
2019-02-20T19:59:47.503Z,100311.12
2019-02-20T20:03:16.359Z,100317.17
2019-02-20T20:06:47.207Z,100315.73
2019-02-20T20:10:34.301Z,100315.23
2019-02-20T20:13:52.149Z,100330.41
2019-02-20T20:17:08.549Z,100330.76
2019-02-20T20:20:36.727Z,100333.38
2019-02-20T20:23:51.636Z,100339.23
2019-02-20T20:26:53.167Z,100342.84
2019-02-20T20:30:16.064Z,100349.48
2019-02-20T20:33:03.503Z,100344.39
2019-02-20T20:36:32.154Z,100345.47
2019-02-20T20:40:16.243Z,100351.42
2019-02-20T20:43:52.858Z,100351.05
2019-02-20T20:46:42.106Z,100358.13
2019-02-20T20:50:04.070Z,100356.77
2019-02-20T20:53:16.279Z,100356.44
2019-02-20T20:56:57.715Z,100351.55
2019-02-20T21:00:26.452Z,100356.95
2019-02-20T21:03:02.295Z,100358.31
2019-02-20T21:06:30.615Z,100361.51
2019-02-20T21:10:13.010Z,100358.38
2019-02-20T21:13:53.502Z,100359.78
2019-02-20T21:17:36.285Z,100364.72
2019-02-20T21:21:05.299Z,100359.16
2019-02-20T21:24:26.541Z,100359.19
2019-02-20T21:27:37.558Z,100354.04
2019-02-20T21:31:01.107Z,100351.50
2019-02-20T21:34:09.934Z,100355.19
2019-02-20T21:37:36.586Z,100353.12
2019-02-20T21:40:47.694Z,100360.59
2019-02-20T21:44:22.561Z,100361.65
2019-02-20T21:47:26.261Z,100361.53
2019-02-20T21:50:14.113Z,100363.10
2019-02-20T21:54:02.471Z,100362.39
2019-02-20T21:57:10.140Z,100367.34
2019-02-20T22:00:34.925Z,100374.24
2019-02-20T22:03:50.722Z,100378.84
2019-02-20T22:07:05.529Z,100377.62
2019-02-20T22:09:58.380Z,100380.68
2019-02-20T22:13:21.793Z,100383.28
2019-02-20T22:16:47.835Z,100382.44
2019-02-20T22:20:31.064Z,100385.72
2019-02-20T22:23:57.485Z,100384.06
2019-02-20T22:26:59.375Z,100386.39
2019-02-20T22:30:36.116Z,100385.34
2019-02-20T22:33:32.905Z,100386.64
2019-02-20T22:36:52.068Z,100387.28
2019-02-20T22:40:05.306Z,100384.05
2019-02-20T22:43:44.233Z,100385.31
2019-02-20T22:46:50.832Z,100391.30
2019-02-20T22:49:56.846Z,100389.20
2019-02-20T22:52:40.049Z,100395.41
2019-02-20T22:56:33.343Z,100400.38
2019-02-20T23:00:02.666Z,100399.87
2019-02-20T23:03:25.275Z,100398.82
2019-02-20T23:06:52.491Z,100406.59
2019-02-20T23:09:33.542Z,100402.55
2019-02-20T23:12:54.963Z,100403.64
2019-02-20T23:15:22.760Z,100408.28
2019-02-20T23:17:50.557Z,100415.80
2019-02-20T23:20:28.849Z,100416.45
2019-02-20T23:22:57.159Z,100413.61
2019-02-20T23:25:25.313Z,100416.81
2019-02-20T23:27:53.180Z,100423.47
2019-02-20T23:30:21.052Z,100426.48
2019-02-20T23:32:48.846Z,100424.52
2019-02-20T23:35:16.637Z,100428.73
2019-02-20T23:37:44.409Z,100424.39
2019-02-20T23:40:12.212Z,100419.16
2019-02-20T23:42:40.019Z,100424.39
2019-02-20T23:45:08.010Z,100419.73
2019-02-20T23:47:35.793Z,100417.28
2019-02-20T23:50:03.974Z,100419.45
2019-02-20T23:52:31.754Z,100429.05
2019-02-20T23:54:59.577Z,100423.72
2019-02-20T23:57:27.398Z,100434.48
2019-02-20T23:59:55.456Z,100427.94
